Arcata, CA

10:05 PM PDT on August 28, 2014 (GMT -0700)
Rohnerville | Change Station
CLOSE
Current Station
Airport
Location: Fortuna,
Elevation: 394 ft
Nearby Weather Stations

Elev 394 ft 40.55 °N, 124.13 °W | Updated 10 minutes ago

Overcast
Overcast
55 °F
Feels Like 55 °F
N
7
Wind Variable Wind from NW

Today
High -- | Low -- °F
--% Chance of Precip.
Yesterday
High -- | Low -- °F
Precip. -- in
6:39 AM 7:54 PM
Waxing Crescent, 12% visible
Pressure 30.07 in
Visibility 0.2 miles
Clouds Overcast 200 ft
Dew Point 55 °F
Humidity 100%
Rainfall 0.00 in
Snow Depth Not available.
UV 0 out of 12
Pollen 9.20 out of 12
Air Quality Not available.
Flu Activity Not available.
METAR KFOT 290455Z AUTO 32006KT M1/4SM OVC002 13/13 A3007 RMK AO1

More Conditions Fewer Conditions

Pressure 30.07 in
Visibility 0.2 miles
Clouds Overcast 200 ft
Dew Point 55 °F
Humidity 100%
Rainfall 0.00 in
Snow Depth Not available.
UV 0 out of 12
Pollen 9.20 out of 12
Air Quality Not available.
Flu Activity Not available.
METAR KFOT 290455Z AUTO 32006KT M1/4SM OVC002 13/13 A3007 RMK AO1

More Conditions Fewer Conditions

10-Day Weather Forecast

Almanac

Astronomy

Aug. 28, 2014 Rise Set
Actual Time 6:39 AM PDT 7:54 PM PDT
Civil Twilight 6:10 AM PDT 8:23 PM PDT
Nautical Twilight 5:36 AM PDT 8:57 PM PDT
Astronomical Twilight 5:00 AM PDT 9:32 PM PDT
Moon 9:38 AM PDT (8/28) 9:20 PM PDT (8/28)
Length of Visible Light 14h 12m
Length of Day
13h 15m
Tomorrow will be 2m 34s shorter.
Waxing Crescent, 12% of the Moon is Illuminated
Aug 29
Waxing Crescent
Sep 2
First Quarter
Sep 8
Full
Sep 15
Last Quarter
Sep 24
New

Yesterday's Extremes

State Highs State Lows

Community

WunderPhotos

Upload Photos

1,748,192 photos uploaded!

Nearby

Snow Depth

Station Depth Elevation
Adin Mountain 1 in 6200 ft
Cedar Pass 0 in 7100 ft
CSS Lab 1 in 6900 ft
Rubicon #2 0 in 7500 ft
Echo Peak 0 in 7800 ft

Earthquake Activity

City Distance Mag. Time & Date
No recent earthquake activity has been reported nearby.
Minimum magnitude displayed is 2.5.

Coastal Water Temperatures

Place Temperature
North Spit, CA 62.1 °F
Crescent City, CA 62.1 °F

Nearby Weather Stations